sensor_id;sensor_type;location;lat;lon;timestamp;pressure;altitude;pressure_sealevel;temperature;humidity
46379;BME280;32084;42.254;22.744;2023-01-30T00:01:24;95478.94;;;2.59;70.20
46379;BME280;32084;42.254;22.744;2023-01-30T00:03:51;95474.72;;;2.57;69.99
46379;BME280;32084;42.254;22.744;2023-01-30T00:06:17;95470.19;;;2.59;70.79
46379;BME280;32084;42.254;22.744;2023-01-30T00:08:43;95474.94;;;2.79;68.14
46379;BME280;32084;42.254;22.744;2023-01-30T00:11:10;95467.03;;;2.79;67.11
46379;BME280;32084;42.254;22.744;2023-01-30T00:13:37;95465.94;;;2.69;67.44
46379;BME280;32084;42.254;22.744;2023-01-30T00:16:03;95472.41;;;2.65;67.18
46379;BME280;32084;42.254;22.744;2023-01-30T00:18:29;95464.16;;;2.57;68.45
46379;BME280;32084;42.254;22.744;2023-01-30T00:20:56;95462.38;;;2.57;68.32
46379;BME280;32084;42.254;22.744;2023-01-30T00:23:22;95468.56;;;2.56;68.69
46379;BME280;32084;42.254;22.744;2023-01-30T00:25:49;95469.88;;;2.50;70.94
46379;BME280;32084;42.254;22.744;2023-01-30T00:28:15;95470.47;;;2.54;71.64
46379;BME280;32084;42.254;22.744;2023-01-30T00:30:41;95467.00;;;2.53;69.93
46379;BME280;32084;42.254;22.744;2023-01-30T00:33:07;95459.72;;;2.57;69.06
46379;BME280;32084;42.254;22.744;2023-01-30T00:35:34;95457.72;;;2.61;69.73
46379;BME280;32084;42.254;22.744;2023-01-30T00:38:00;95460.56;;;2.58;68.78
46379;BME280;32084;42.254;22.744;2023-01-30T00:40:27;95467.53;;;2.59;69.16
46379;BME280;32084;42.254;22.744;2023-01-30T00:42:53;95469.63;;;2.53;66.86
46379;BME280;32084;42.254;22.744;2023-01-30T00:45:39;95463.28;;;2.56;67.72
46379;BME280;32084;42.254;22.744;2023-01-30T00:48:24;95467.09;;;2.52;68.56
46379;BME280;32084;42.254;22.744;2023-01-30T00:50:51;95455.59;;;2.53;69.10
46379;BME280;32084;42.254;22.744;2023-01-30T00:53:17;95462.03;;;2.49;68.94
46379;BME280;32084;42.254;22.744;2023-01-30T00:55:43;95457.59;;;2.49;67.88
46379;BME280;32084;42.254;22.744;2023-01-30T00:58:10;95461.19;;;2.48;68.05
46379;BME280;32084;42.254;22.744;2023-01-30T01:00:37;95460.66;;;2.56;66.71
46379;BME280;32084;42.254;22.744;2023-01-30T01:03:03;95456.97;;;2.59;67.11
46379;BME280;32084;42.254;22.744;2023-01-30T01:05:29;95454.53;;;2.56;67.73
46379;BME280;32084;42.254;22.744;2023-01-30T01:07:55;95448.53;;;2.53;67.00
46379;BME280;32084;42.254;22.744;2023-01-30T01:10:21;95444.22;;;2.52;68.25
46379;BME280;32084;42.254;22.744;2023-01-30T01:12:48;95447.03;;;2.49;68.41
46379;BME280;32084;42.254;22.744;2023-01-30T01:15:15;95445.03;;;2.53;66.99
46379;BME280;32084;42.254;22.744;2023-01-30T01:17:41;95438.59;;;2.57;66.62
46379;BME280;32084;42.254;22.744;2023-01-30T01:20:07;95435.84;;;2.46;66.75
46379;BME280;32084;42.254;22.744;2023-01-30T01:22:34;95433.41;;;2.43;67.31
46379;BME280;32084;42.254;22.744;2023-01-30T01:25:00;95431.84;;;2.40;67.99
46379;BME280;32084;42.254;22.744;2023-01-30T01:27:26;95419.59;;;2.39;68.07
46379;BME280;32084;42.254;22.744;2023-01-30T01:29:53;95433.53;;;2.41;67.59
46379;BME280;32084;42.254;22.744;2023-01-30T01:32:20;95429.63;;;2.47;66.48
46379;BME280;32084;42.254;22.744;2023-01-30T01:34:46;95427.63;;;2.50;66.26
46379;BME280;32084;42.254;22.744;2023-01-30T01:37:12;95430.78;;;2.43;67.97
46379;BME280;32084;42.254;22.744;2023-01-30T01:39:38;95427.09;;;2.45;67.38
46379;BME280;32084;42.254;22.744;2023-01-30T01:42:23;95428.47;;;2.38;65.91
46379;BME280;32084;42.254;22.744;2023-01-30T01:47:22;95419.81;;;2.36;66.38
46379;BME280;32084;42.254;22.744;2023-01-30T01:49:49;95417.91;;;2.38;66.27
46379;BME280;32084;42.254;22.744;2023-01-30T01:52:15;95418.31;;;2.32;66.92
46379;BME280;32084;42.254;22.744;2023-01-30T01:54:43;95412.00;;;2.47;66.08
46379;BME280;32084;42.254;22.744;2023-01-30T01:57:11;95405.00;;;2.46;65.40
46379;BME280;32084;42.254;22.744;2023-01-30T01:59:42;95412.94;;;2.33;67.56
46379;BME280;32084;42.254;22.744;2023-01-30T02:02:11;95413.88;;;2.32;67.02
46379;BME280;32084;42.254;22.744;2023-01-30T02:04:38;95412.69;;;2.24;66.63
46379;BME280;32084;42.254;22.744;2023-01-30T02:07:24;95407.44;;;2.24;67.46
46379;BME280;32084;42.254;22.744;2023-01-30T02:09:50;95403.03;;;2.24;68.10
46379;BME280;32084;42.254;22.744;2023-01-30T02:12:17;95401.63;;;2.19;68.12
46379;BME280;32084;42.254;22.744;2023-01-30T02:14:43;95395.50;;;2.18;68.07
46379;BME280;32084;42.254;22.744;2023-01-30T02:17:09;95393.31;;;2.25;68.07
46379;BME280;32084;42.254;22.744;2023-01-30T02:19:49;95388.75;;;2.27;68.80
46379;BME280;32084;42.254;22.744;2023-01-30T02:32:49;95375.47;;;2.15;68.29
46379;BME280;32084;42.254;22.744;2023-01-30T02:35:46;95377.44;;;2.12;68.72
46379;BME280;32084;42.254;22.744;2023-01-30T02:40:41;95373.25;;;2.22;68.02
46379;BME280;32084;42.254;22.744;2023-01-30T02:48:12;95373.56;;;2.18;69.97
46379;BME280;32084;42.254;22.744;2023-01-30T02:50:42;95376.94;;;2.20;69.41
46379;BME280;32084;42.254;22.744;2023-01-30T02:53:09;95380.44;;;2.20;68.57
46379;BME280;32084;42.254;22.744;2023-01-30T02:55:38;95369.75;;;2.22;68.12
46379;BME280;32084;42.254;22.744;2023-01-30T02:58:04;95380.22;;;2.23;68.54
46379;BME280;32084;42.254;22.744;2023-01-30T03:03:33;95373.88;;;2.13;69.35
46379;BME280;32084;42.254;22.744;2023-01-30T03:06:05;95370.38;;;2.12;69.04
46379;BME280;32084;42.254;22.744;2023-01-30T03:11:11;95373.16;;;2.11;65.30
46379;BME280;32084;42.254;22.744;2023-01-30T03:16:05;95374.19;;;2.08;66.50
46379;BME280;32084;42.254;22.744;2023-01-30T03:18:33;95374.91;;;2.10;65.33
46379;BME280;32084;42.254;22.744;2023-01-30T03:21:04;95373.53;;;2.05;65.98
46379;BME280;32084;42.254;22.744;2023-01-30T03:23:30;95369.41;;;2.01;66.04
46379;BME280;32084;42.254;22.744;2023-01-30T03:25:56;95373.16;;;2.11;64.61
46379;BME280;32084;42.254;22.744;2023-01-30T03:28:23;95378.94;;;2.03;66.21
46379;BME280;32084;42.254;22.744;2023-01-30T03:30:50;95378.28;;;2.00;67.14
46379;BME280;32084;42.254;22.744;2023-01-30T03:33:16;95373.88;;;2.13;66.12
46379;BME280;32084;42.254;22.744;2023-01-30T03:35:42;95381.16;;;2.09;66.69
46379;BME280;32084;42.254;22.744;2023-01-30T03:38:08;95383.25;;;2.04;66.41
46379;BME280;32084;42.254;22.744;2023-01-30T03:40:34;95384.94;;;2.05;67.33
46379;BME280;32084;42.254;22.744;2023-01-30T03:43:00;95380.41;;;2.07;66.87
46379;BME280;32084;42.254;22.744;2023-01-30T03:45:26;95378.50;;;1.97;66.88
46379;BME280;32084;42.254;22.744;2023-01-30T03:47:52;95385.97;;;2.03;65.37
46379;BME280;32084;42.254;22.744;2023-01-30T03:50:18;95380.94;;;2.00;64.91
46379;BME280;32084;42.254;22.744;2023-01-30T03:52:45;95374.19;;;1.95;66.02
46379;BME280;32084;42.254;22.744;2023-01-30T03:55:11;95381.97;;;1.97;65.49
46379;BME280;32084;42.254;22.744;2023-01-30T03:57:37;95374.06;;;2.10;65.10
46379;BME280;32084;42.254;22.744;2023-01-30T04:00:03;95372.28;;;2.10;65.06
46379;BME280;32084;42.254;22.744;2023-01-30T04:02:29;95372.69;;;1.91;65.77
46379;BME280;32084;42.254;22.744;2023-01-30T04:04:55;95371.63;;;1.94;65.75
46379;BME280;32084;42.254;22.744;2023-01-30T04:07:21;95364.56;;;1.94;65.94
46379;BME280;32084;42.254;22.744;2023-01-30T04:09:48;95372.78;;;2.03;65.77
46379;BME280;32084;42.254;22.744;2023-01-30T04:12:14;95358.47;;;1.94;65.90
46379;BME280;32084;42.254;22.744;2023-01-30T04:14:40;95359.38;;;1.93;64.75
46379;BME280;32084;42.254;22.744;2023-01-30T04:17:06;95354.75;;;1.97;65.35
46379;BME280;32084;42.254;22.744;2023-01-30T04:19:32;95361.13;;;2.07;65.93
46379;BME280;32084;42.254;22.744;2023-01-30T04:21:58;95356.88;;;2.04;66.12
46379;BME280;32084;42.254;22.744;2023-01-30T04:24:24;95353.91;;;1.96;65.22
46379;BME280;32084;42.254;22.744;2023-01-30T04:26:50;95349.50;;;2.09;65.51
46379;BME280;32084;42.254;22.744;2023-01-30T04:29:16;95350.84;;;1.89;64.57
46379;BME280;32084;42.254;22.744;2023-01-30T04:31:42;95350.19;;;1.86;65.73
46379;BME280;32084;42.254;22.744;2023-01-30T04:34:08;95355.19;;;1.90;65.49
46379;BME280;32084;42.254;22.744;2023-01-30T04:36:34;95348.03;;;2.05;63.92
46379;BME280;32084;42.254;22.744;2023-01-30T04:39:01;95350.31;;;1.97;64.74
46379;BME280;32084;42.254;22.744;2023-01-30T04:41:27;95360.13;;;1.95;64.99
46379;BME280;32084;42.254;22.744;2023-01-30T04:43:54;95347.38;;;1.89;66.02
46379;BME280;32084;42.254;22.744;2023-01-30T04:46:20;95355.16;;;1.78;64.64
46379;BME280;32084;42.254;22.744;2023-01-30T04:48:46;95360.44;;;1.78;64.64
46379;BME280;32084;42.254;22.744;2023-01-30T04:51:12;95347.97;;;1.80;65.27
46379;BME280;32084;42.254;22.744;2023-01-30T04:53:38;95359.81;;;1.87;65.24
46379;BME280;32084;42.254;22.744;2023-01-30T04:56:04;95361.19;;;1.92;66.16
46379;BME280;32084;42.254;22.744;2023-01-30T04:58:30;95356.25;;;1.88;65.96
46379;BME280;32084;42.254;22.744;2023-01-30T05:01:10;95359.69;;;1.75;65.36
46379;BME280;32084;42.254;22.744;2023-01-30T05:03:36;95358.94;;;1.73;66.39
46379;BME280;32084;42.254;22.744;2023-01-30T05:06:02;95361.91;;;1.82;65.86
46379;BME280;32084;42.254;22.744;2023-01-30T05:08:28;95361.19;;;1.92;66.52
46379;BME280;32084;42.254;22.744;2023-01-30T05:10:56;95354.09;;;1.80;65.63
46379;BME280;32084;42.254;22.744;2023-01-30T05:13:22;95352.97;;;1.84;65.94
46379;BME280;32084;42.254;22.744;2023-01-30T05:15:48;95353.78;;;1.72;66.14
46379;BME280;32084;42.254;22.744;2023-01-30T05:18:14;95346.50;;;1.75;66.48
46379;BME280;32084;42.254;22.744;2023-01-30T05:20:40;95342.81;;;1.78;66.17
46379;BME280;32084;42.254;22.744;2023-01-30T05:23:06;95338.28;;;1.93;65.21
46379;BME280;32084;42.254;22.744;2023-01-30T05:25:33;95332.91;;;1.94;65.86
46379;BME280;32084;42.254;22.744;2023-01-30T05:27:59;95338.81;;;1.85;65.56
46379;BME280;32084;42.254;22.744;2023-01-30T05:30:25;95339.22;;;1.79;66.71
46379;BME280;32084;42.254;22.744;2023-01-30T05:32:51;95339.03;;;1.82;66.42
46379;BME280;32084;42.254;22.744;2023-01-30T05:35:18;95335.97;;;1.88;66.01
46379;BME280;32084;42.254;22.744;2023-01-30T05:37:48;95332.25;;;1.78;65.84
46379;BME280;32084;42.254;22.744;2023-01-30T05:40:14;95341.03;;;1.79;66.66
46379;BME280;32084;42.254;22.744;2023-01-30T05:42:40;95342.59;;;1.81;66.43
46379;BME280;32084;42.254;22.744;2023-01-30T05:45:06;95302.41;;;1.52;66.11
46379;BME280;32084;42.254;22.744;2023-01-30T05:47:32;95341.34;;;1.87;65.68
46379;BME280;32084;42.254;22.744;2023-01-30T05:49:58;95347.03;;;1.93;65.63
46379;BME280;32084;42.254;22.744;2023-01-30T05:52:24;95345.69;;;1.88;64.86
46379;BME280;32084;42.254;22.744;2023-01-30T05:54:50;95336.81;;;1.89;65.97
46379;BME280;32084;42.254;22.744;2023-01-30T05:57:16;95334.50;;;1.97;65.30
46379;BME280;32084;42.254;22.744;2023-01-30T05:59:42;95342.00;;;1.90;65.71
46379;BME280;32084;42.254;22.744;2023-01-30T06:02:08;95344.84;;;2.00;64.98
46379;BME280;32084;42.254;22.744;2023-01-30T06:04:35;95340.72;;;1.96;65.40
46379;BME280;32084;42.254;22.744;2023-01-30T06:07:01;95342.41;;;1.97;64.19
46379;BME280;32084;42.254;22.744;2023-01-30T06:09:27;95340.50;;;1.99;64.96
46379;BME280;32084;42.254;22.744;2023-01-30T06:11:53;95342.41;;;1.97;65.92
46379;BME280;32084;42.254;22.744;2023-01-30T06:14:20;95338.75;;;2.00;65.20
46379;BME280;32084;42.254;22.744;2023-01-30T06:16:46;95344.84;;;2.00;66.34
46379;BME280;32084;42.254;22.744;2023-01-30T06:19:12;95341.06;;;2.04;65.12
46379;BME280;32084;42.254;22.744;2023-01-30T06:21:38;95341.28;;;2.01;65.32
46379;BME280;32084;42.254;22.744;2023-01-30T06:24:04;95340.72;;;1.96;65.56
46379;BME280;32084;42.254;22.744;2023-01-30T06:26:30;95340.72;;;1.96;65.22
46379;BME280;32084;42.254;22.744;2023-01-30T06:28:56;95339.47;;;1.89;66.33
46379;BME280;32084;42.254;22.744;2023-01-30T06:31:22;95337.13;;;1.97;66.37
46379;BME280;32084;42.254;22.744;2023-01-30T06:33:48;95338.28;;;1.93;65.84
46379;BME280;32084;42.254;22.744;2023-01-30T06:36:14;95339.78;;;1.84;64.60
46379;BME280;32084;42.254;22.744;2023-01-30T06:38:40;95340.91;;;1.80;65.91
46379;BME280;32084;42.254;22.744;2023-01-30T06:41:06;95336.41;;;1.95;66.57
46379;BME280;32084;42.254;22.744;2023-01-30T06:43:32;95335.22;;;1.99;66.29
46379;BME280;32084;42.254;22.744;2023-01-30T06:45:58;95334.09;;;2.03;66.88
46379;BME280;32084;42.254;22.744;2023-01-30T06:48:25;95333.13;;;2.04;66.45
46379;BME280;32084;42.254;22.744;2023-01-30T06:50:51;95328.69;;;2.05;65.32
46379;BME280;32084;42.254;22.744;2023-01-30T06:53:17;95327.97;;;2.03;65.10
46379;BME280;32084;42.254;22.744;2023-01-30T06:55:43;95324.69;;;2.12;65.48
46379;BME280;32084;42.254;22.744;2023-01-30T06:58:11;95326.81;;;2.20;64.48
46379;BME280;32084;42.254;22.744;2023-01-30T07:00:38;95327.66;;;2.20;64.26
46379;BME280;32084;42.254;22.744;2023-01-30T07:03:05;95336.72;;;2.16;64.50
46379;BME280;32084;42.254;22.744;2023-01-30T07:05:31;95338.31;;;2.19;64.21
46379;BME280;32084;42.254;22.744;2023-01-30T07:07:58;95332.19;;;2.18;66.15
46379;BME280;32084;42.254;22.744;2023-01-30T07:10:24;95337.78;;;2.26;63.70
46379;BME280;32084;42.254;22.744;2023-01-30T07:12:51;95340.34;;;2.28;64.86
46379;BME280;32084;42.254;22.744;2023-01-30T07:15:17;95348.97;;;2.30;63.65
46379;BME280;32084;42.254;22.744;2023-01-30T07:17:43;95350.34;;;2.23;63.87
46379;BME280;32084;42.254;22.744;2023-01-30T07:20:10;95352.53;;;2.16;64.92
46379;BME280;32084;42.254;22.744;2023-01-30T07:22:36;95354.47;;;2.27;64.81
46379;BME280;32084;42.254;22.744;2023-01-30T07:25:02;95357.63;;;2.32;63.48
46379;BME280;32084;42.254;22.744;2023-01-30T07:27:28;95354.38;;;2.28;63.34
46379;BME280;32084;42.254;22.744;2023-01-30T07:29:54;95354.56;;;2.25;64.54
46379;BME280;32084;42.254;22.744;2023-01-30T07:32:20;95360.28;;;2.32;64.10
46379;BME280;32084;42.254;22.744;2023-01-30T07:34:47;95363.56;;;2.36;64.39
46379;BME280;32084;42.254;22.744;2023-01-30T07:37:13;95358.91;;;2.39;62.15
46379;BME280;32084;42.254;22.744;2023-01-30T07:39:39;95363.53;;;2.48;62.86
46379;BME280;32084;42.254;22.744;2023-01-30T07:42:05;95365.31;;;2.35;63.00
46379;BME280;32084;42.254;22.744;2023-01-30T07:44:32;95363.84;;;2.31;62.77
46379;BME280;32084;42.254;22.744;2023-01-30T07:46:59;95361.53;;;2.26;63.46
46379;BME280;32084;42.254;22.744;2023-01-30T07:49:25;95356.03;;;2.42;63.66
46379;BME280;32084;42.254;22.744;2023-01-30T07:51:51;95356.88;;;2.56;62.92
46379;BME280;32084;42.254;22.744;2023-01-30T07:54:17;95358.47;;;2.45;63.15
46379;BME280;32084;42.254;22.744;2023-01-30T07:56:43;95356.25;;;2.52;62.36
46379;BME280;32084;42.254;22.744;2023-01-30T07:59:10;95369.03;;;2.45;61.19
46379;BME280;32084;42.254;22.744;2023-01-30T08:01:36;95369.75;;;2.34;61.95
46379;BME280;32084;42.254;22.744;2023-01-30T08:04:02;95364.91;;;2.41;61.39
46379;BME280;32084;42.254;22.744;2023-01-30T08:06:28;95371.44;;;2.48;61.13
46379;BME280;32084;42.254;22.744;2023-01-30T08:08:55;95375.47;;;2.41;61.39
46379;BME280;32084;42.254;22.744;2023-01-30T08:11:21;95369.34;;;2.41;61.78
46379;BME280;32084;42.254;22.744;2023-01-30T08:13:47;95373.69;;;2.42;61.08
46379;BME280;32084;42.254;22.744;2023-01-30T08:16:13;95375.88;;;2.48;62.68
46379;BME280;32084;42.254;22.744;2023-01-30T08:18:39;95368.78;;;2.61;60.12
46379;BME280;32084;42.254;22.744;2023-01-30T08:21:05;95368.50;;;2.40;61.69
46379;BME280;32084;42.254;22.744;2023-01-30T08:23:32;95370.94;;;2.43;61.96
46379;BME280;32084;42.254;22.744;2023-01-30T08:25:59;95362.78;;;2.46;60.95
46379;BME280;32084;42.254;22.744;2023-01-30T08:28:26;95358.69;;;2.42;62.34
46379;BME280;32084;42.254;22.744;2023-01-30T08:30:52;95361.13;;;2.32;62.72
46379;BME280;32084;42.254;22.744;2023-01-30T08:33:19;95352.22;;;2.46;62.04
46379;BME280;32084;42.254;22.744;2023-01-30T08:35:45;95352.38;;;2.45;62.16
46379;BME280;32084;42.254;22.744;2023-01-30T08:38:12;95354.66;;;2.37;62.63
46379;BME280;32084;42.254;22.744;2023-01-30T08:40:38;95348.56;;;2.36;62.38
46379;BME280;32084;42.254;22.744;2023-01-30T08:43:04;95342.63;;;2.32;61.93
46379;BME280;32084;42.254;22.744;2023-01-30T08:45:31;95339.91;;;2.21;62.37
46379;BME280;32084;42.254;22.744;2023-01-30T08:48:00;95338.44;;;2.30;62.18
46379;BME280;32084;42.254;22.744;2023-01-30T08:50:27;95342.94;;;2.41;61.78
46379;BME280;32084;42.254;22.744;2023-01-30T08:52:53;95341.16;;;2.41;61.29
46379;BME280;32084;42.254;22.744;2023-01-30T08:55:19;95344.41;;;2.58;60.69
46379;BME280;32084;42.254;22.744;2023-01-30T08:57:46;95336.94;;;2.51;60.69
46379;BME280;32084;42.254;22.744;2023-01-30T09:00:12;95330.72;;;2.52;60.44
46379;BME280;32084;42.254;22.744;2023-01-30T09:02:38;95330.84;;;2.75;59.69
46379;BME280;32084;42.254;22.744;2023-01-30T09:05:05;95323.97;;;2.85;58.73
46379;BME280;32084;42.254;22.744;2023-01-30T09:07:31;95321.34;;;2.85;60.48
46379;BME280;32084;42.254;22.744;2023-01-30T09:09:58;95317.72;;;2.86;58.93
46379;BME280;32084;42.254;22.744;2023-01-30T09:12:24;95306.97;;;2.77;59.91
46379;BME280;32084;42.254;22.744;2023-01-30T09:14:50;95301.59;;;2.78;60.00
46379;BME280;32084;42.254;22.744;2023-01-30T09:17:20;95303.41;;;2.78;59.42
46379;BME280;32084;42.254;22.744;2023-01-30T09:19:46;95302.97;;;2.71;60.84
46379;BME280;32084;42.254;22.744;2023-01-30T09:22:12;95297.06;;;2.67;60.64
46379;BME280;32084;42.254;22.744;2023-01-30T09:24:38;95295.94;;;2.71;61.48
46379;BME280;32084;42.254;22.744;2023-01-30T09:27:04;95298.34;;;2.62;59.92
46379;BME280;32084;42.254;22.744;2023-01-30T09:29:30;95283.16;;;2.65;60.32
46379;BME280;32084;42.254;22.744;2023-01-30T09:31:56;95285.75;;;2.78;60.20
46379;BME280;32084;42.254;22.744;2023-01-30T09:34:23;95285.13;;;2.74;59.81
46379;BME280;32084;42.254;22.744;2023-01-30T09:36:54;95287.53;;;2.90;59.44
46379;BME280;32084;42.254;22.744;2023-01-30T09:39:20;95285.72;;;2.91;59.01
46379;BME280;32084;42.254;22.744;2023-01-30T09:44:31;95283.94;;;2.79;58.69
46379;BME280;32084;42.254;22.744;2023-01-30T09:47:10;95277.53;;;2.83;58.38
46379;BME280;32084;42.254;22.744;2023-01-30T09:49:40;95281.38;;;2.90;59.97
46379;BME280;32084;42.254;22.744;2023-01-30T09:54:41;95275.94;;;3.04;56.77
46379;BME280;32084;42.254;22.744;2023-01-30T09:59:44;95261.44;;;2.86;58.25
46379;BME280;32084;42.254;22.744;2023-01-30T10:04:39;95259.69;;;3.22;57.68
46379;BME280;32084;42.254;22.744;2023-01-30T10:12:36;95251.72;;;3.10;56.92
46379;BME280;32084;42.254;22.744;2023-01-30T10:20:25;95238.44;;;3.23;57.82
46379;BME280;32084;42.254;22.744;2023-01-30T10:23:02;95245.84;;;3.42;56.70
46379;BME280;32084;42.254;22.744;2023-01-30T10:25:48;95230.34;;;3.49;56.77
46379;BME280;32084;42.254;22.744;2023-01-30T10:28:23;95231.94;;;3.51;56.05
46379;BME280;32084;42.254;22.744;2023-01-30T10:30:52;95230.84;;;3.54;56.54
46379;BME280;32084;42.254;22.744;2023-01-30T10:33:25;95219.56;;;3.52;57.77
46379;BME280;32084;42.254;22.744;2023-01-30T10:35:58;95218.25;;;3.69;56.76
46379;BME280;32084;42.254;22.744;2023-01-30T10:38:27;95212.13;;;3.57;53.81
46379;BME280;32084;42.254;22.744;2023-01-30T10:41:05;95199.47;;;3.38;55.52
46379;BME280;32084;42.254;22.744;2023-01-30T10:43:46;95198.00;;;3.34;55.10
46379;BME280;32084;42.254;22.744;2023-01-30T10:48:54;95187.22;;;3.48;55.97
46379;BME280;32084;42.254;22.744;2023-01-30T10:51:26;95191.19;;;3.54;55.77
46379;BME280;32084;42.254;22.744;2023-01-30T10:54:08;95176.03;;;3.45;55.66
46379;BME280;32084;42.254;22.744;2023-01-30T10:56:43;95178.06;;;3.41;55.28
46379;BME280;32084;42.254;22.744;2023-01-30T11:01:47;95163.56;;;3.81;57.95
46379;BME280;32084;42.254;22.744;2023-01-30T11:06:46;95162.03;;;3.89;55.26
46379;BME280;32084;42.254;22.744;2023-01-30T11:09:13;95159.59;;;3.75;53.78
46379;BME280;32084;42.254;22.744;2023-01-30T11:14:11;95133.75;;;3.67;56.44
46379;BME280;32084;42.254;22.744;2023-01-30T11:16:55;95137.00;;;3.71;55.10
46379;BME280;32084;42.254;22.744;2023-01-30T11:19:23;95130.66;;;3.51;55.31
46379;BME280;32084;42.254;22.744;2023-01-30T11:21:51;95121.00;;;3.50;56.54
46379;BME280;32084;42.254;22.744;2023-01-30T11:24:19;95121.25;;;3.58;56.36
46379;BME280;32084;42.254;22.744;2023-01-30T11:26:45;95118.38;;;3.84;55.12
46379;BME280;32084;42.254;22.744;2023-01-30T11:29:16;95109.97;;;3.79;55.40
46379;BME280;32084;42.254;22.744;2023-01-30T11:31:49;95103.94;;;3.77;54.51
46379;BME280;32084;42.254;22.744;2023-01-30T11:34:16;95101.69;;;3.49;52.82
46379;BME280;32084;42.254;22.744;2023-01-30T11:36:43;95092.06;;;3.48;54.69
46379;BME280;32084;42.254;22.744;2023-01-30T11:43:12;95071.81;;;4.04;55.05
46379;BME280;32084;42.254;22.744;2023-01-30T11:45:46;95069.34;;;3.80;54.22
46379;BME280;32084;42.254;22.744;2023-01-30T11:48:17;95064.50;;;3.74;53.70
46379;BME280;32084;42.254;22.744;2023-01-30T11:50:45;95063.56;;;3.63;54.08
46379;BME280;32084;42.254;22.744;2023-01-30T11:53:16;95054.44;;;3.67;53.73
46379;BME280;32084;42.254;22.744;2023-01-30T11:55:45;95052.69;;;4.00;54.98
46379;BME280;32084;42.254;22.744;2023-01-30T11:58:11;95063.53;;;3.97;52.41
46379;BME280;32084;42.254;22.744;2023-01-30T12:00:46;95042.50;;;3.96;54.70
46379;BME280;32084;42.254;22.744;2023-01-30T12:03:15;95052.47;;;3.92;53.48
46379;BME280;32084;42.254;22.744;2023-01-30T12:05:41;95045.75;;;3.88;53.41
46379;BME280;32084;42.254;22.744;2023-01-30T12:10:42;95038.06;;;3.85;55.15
46379;BME280;32084;42.254;22.744;2023-01-30T12:13:54;95040.97;;;3.82;52.30
46379;BME280;32084;42.254;22.744;2023-01-30T12:15:58;95027.47;;;3.85;55.55
46379;BME280;32084;42.254;22.744;2023-01-30T12:18:34;95027.69;;;4.04;55.24
46379;BME280;32084;42.254;22.744;2023-01-30T12:23:42;95011.00;;;3.92;54.37
46379;BME280;32084;42.254;22.744;2023-01-30T12:26:19;95008.69;;;3.99;53.52
46379;BME280;32084;42.254;22.744;2023-01-30T12:28:47;95010.69;;;3.63;52.67
46379;BME280;32084;42.254;22.744;2023-01-30T12:31:38;95006.63;;;3.48;52.81
46379;BME280;32084;42.254;22.744;2023-01-30T12:34:03;94998.91;;;3.67;53.05
46379;BME280;32084;42.254;22.744;2023-01-30T12:36:46;94994.66;;;3.99;52.82
46379;BME280;32084;42.254;22.744;2023-01-30T12:47:06;94968.63;;;4.36;51.95
46379;BME280;32084;42.254;22.744;2023-01-30T13:03:06;94959.19;;;4.22;54.12
46379;BME280;32084;42.254;22.744;2023-01-30T13:05:40;94956.63;;;4.00;53.13
46379;BME280;32084;42.254;22.744;2023-01-30T13:08:20;94951.56;;;3.64;52.37
46379;BME280;32084;42.254;22.744;2023-01-30T13:16:14;94952.03;;;3.69;54.32
46379;BME280;32084;42.254;22.744;2023-01-30T13:18:49;94947.34;;;3.73;53.93
46379;BME280;32084;42.254;22.744;2023-01-30T13:23:50;94945.00;;;3.91;54.37
46379;BME280;32084;42.254;22.744;2023-01-30T13:26:23;94937.81;;;3.82;53.19
46379;BME280;32084;42.254;22.744;2023-01-30T13:28:53;94936.53;;;3.65;53.36
46379;BME280;32084;42.254;22.744;2023-01-30T13:31:22;94923.34;;;3.54;54.25
46379;BME280;32084;42.254;22.744;2023-01-30T13:33:50;94935.25;;;3.48;53.97
46379;BME280;32084;42.254;22.744;2023-01-30T13:36:21;94922.06;;;3.37;54.96
46379;BME280;32084;42.254;22.744;2023-01-30T13:41:21;94925.38;;;3.61;54.79
46379;BME280;32084;42.254;22.744;2023-01-30T13:43:50;94922.22;;;3.67;55.48
46379;BME280;32084;42.254;22.744;2023-01-30T13:46:25;94913.72;;;3.52;56.08
46379;BME280;32084;42.254;22.744;2023-01-30T13:49:13;94910.63;;;3.59;55.93
46379;BME280;32084;42.254;22.744;2023-01-30T13:54:18;94906.09;;;3.82;55.83
46379;BME280;32084;42.254;22.744;2023-01-30T13:57:04;94901.06;;;3.67;55.37
46379;BME280;32084;42.254;22.744;2023-01-30T14:02:07;94899.53;;;3.97;55.42
46379;BME280;32084;42.254;22.744;2023-01-30T14:09:33;94891.28;;;3.36;56.57
46379;BME280;32084;42.254;22.744;2023-01-30T14:11:59;94881.69;;;3.46;57.34
46379;BME280;32084;42.254;22.744;2023-01-30T14:14:29;94880.47;;;3.50;56.51
46379;BME280;32084;42.254;22.744;2023-01-30T14:17:10;94885.28;;;3.33;56.07
46379;BME280;32084;42.254;22.744;2023-01-30T14:19:56;94881.16;;;3.08;55.97
46379;BME280;32084;42.254;22.744;2023-01-30T14:22:31;94883.91;;;3.07;57.38
46379;BME280;32084;42.254;22.744;2023-01-30T14:27:44;94877.56;;;2.98;57.39
46379;BME280;32084;42.254;22.744;2023-01-30T14:32:55;94876.72;;;2.98;58.55
46379;BME280;32084;42.254;22.744;2023-01-30T14:35:23;94880.44;;;2.95;57.87
46379;BME280;32084;42.254;22.744;2023-01-30T14:37:50;94874.56;;;2.91;58.56
46379;BME280;32084;42.254;22.744;2023-01-30T14:45:52;94871.44;;;2.75;59.09
46379;BME280;32084;42.254;22.744;2023-01-30T14:58:59;94877.19;;;2.58;60.11
46379;BME280;32084;42.254;22.744;2023-01-30T15:01:26;94885.13;;;2.58;60.36
46379;BME280;32084;42.254;22.744;2023-01-30T15:03:52;94872.19;;;2.66;60.77
46379;BME280;32084;42.254;22.744;2023-01-30T15:06:18;94865.81;;;2.57;60.78
46379;BME280;32084;42.254;22.744;2023-01-30T15:08:45;94866.19;;;2.52;61.01
46379;BME280;32084;42.254;22.744;2023-01-30T15:11:16;94864.25;;;2.54;61.70
46379;BME280;32084;42.254;22.744;2023-01-30T15:16:22;94854.44;;;2.68;62.30
46379;BME280;32084;42.254;22.744;2023-01-30T15:24:01;94859.91;;;2.42;63.75
46379;BME280;32084;42.254;22.744;2023-01-30T15:31:54;94864.84;;;2.47;64.85